LGIR/HER METAR and TAF weather

Enter ICAO airport designator
Station Type Date Time Source
LGIR METAR 2021/09/16 21:50 UTC NOAA

LGIR 162150Z 16004KT CAVOK 22/21 Q1017 NOSIG


Station Type Date Time Source
LGIR Decoded METAR 2021/09/16 21:50 UTC NOAA

Heraklion Airport , Greece (LGIR) 35-20N 025-11E 39M
Sep 16, 2021 - 05:50 PM EDT / 2021.09.16 2150 UTC
Wind: from the SSE (160 degrees) at 5 MPH (4 KT):0
Visibility: greater than 7 mile(s):0
Temperature: 71 F (22 C)
Dew Point: 69 F (21 C)
Relative Humidity: 94%
Pressure (altimeter): 30.03 in. Hg (1017 hPa)
ob: LGIR 162150Z 16004KT CAVOK 22/21 Q1017 NOSIG
cycle: 22

Station Type Date Time Source
LGIR TAF 2021/09/16 18:15 UTC NOAA

TAF LGIR 161700Z 1618/1718 32012KT 9999 FEW025
BECMG 1716/1718 VRB03KT

Example: see airport list